Evansville (EVV/KEVV)

Map

Destinations

Information

Location
Evansville, IN
Local Time
20:52 / 8:52 pm
GMT Time
01:52 / 1:52 am
Gates
Unassigned
No FAA reported delays
METAR KEVV 250054Z 18008KT 10SM CLR 12/00 A2977 RMK AO2 SLP083 T01220000
TAF KEVV 242328Z 2500/2524 20008KT P6SM SCT120 BKN200 FM251200 27007KT P6SM SCT200 FM251600 33010KT P6SM SKC